X  Schlie├čen METAR Luftfahrt Wetterdaten     EDDK Cologne Bonn Airport
Temperatur
64°F Temperatur
54°F Taupunkt
68% Feuchtigkeit



Wind
9 MPS
14 KM/S
4 M/S
8 KTS



220°
SW
Aktuelle Wetterlage

Klar Klar
Luftdruck 1019.98 (hPa) - 30.12 (inHg)
Sichtweite 6 (Meile) - 9.7 (Km)
Flughafen
Flughafen Code EDDK

Position : Cologne Bonn Airport
Entfernung: 56 (mi)

Metar:
EDDK 132120Z AUTO 22008KT CAVOK 18/12 Q1020 NOSIG

Zeit: 2024-04-13 23:20 CEST